Indianapolis, Indiana
Traffic Map
Current Weather Conditions
Indianapolis, Indiana
Broken Clouds
Broken Clouds
65°
Feels Like: 65°
Wind Chill: 65° Ceiling: 25000
Heat Index: 65° Visibility: 10mi
Dew Point: 52° Wind: 12mph
Humidity: 63% Direction: 160° (SSE)
Pressure: 30.11in Gusts: 0mph
Raw Report DataKIND 281254Z 16010KT 10SM BKN250 18/11 A3011 RMK AO2 SLP192 T01830111
Traffic Incident Summary
Active as of:
Severity:
Category:
InformationThere was an issue retrieving the traffic information for this location. Please try a different location or try again shortly.
Advertisements
Track Severe Weather on mobile